Flight Track Log - Related Links

Times and Time Zones

All times are in EDT time to prevent confusion due to time zone crossing. See the EJA831 flight status page for this flight to view local times or setup timezone preferences in your user account.

Time Position Orientation Groundspeed Altitude Reporting Facility
EDT Latitude Longitude Course Direction KTS MPH feet Rate Location/Type
Tue 03:13:12 PM 40.8333 -74.1000 255° West 187 215 1,600  Level New York TRACON
Tue 03:14:12 PM 40.8167 -74.1833 255° West 217 250 2,400 2,650 Climbing New York TRACON
Tue 03:15:12 PM 40.8333 -74.2667 285° West 260 299 6,900 3,250 Climbing New York TRACON
Tue 03:16:12 PM 40.8333 -74.3667 270° West 293 337 8,900 1,850 Climbing New York TRACON
Tue 03:17:12 PM 40.8500 -74.4833 281° West 297 342 10,600 2,391 Climbing New York TRACON
Tue 03:18:30 PM 40.8675 -74.6264 279° West 313 360 14,400 2,783 Climbing New York Center
Tue 03:19:30 PM 40.8681 -74.7361 270° West 335 386 17,000 1,780 Climbing New York Center
Tue 03:20:28 PM 40.8508 -74.8750 261° West 351 404 17,900 1,916 Climbing New York Center
Tue 03:21:29 PM 40.8358 -75.0003 261° West 351 404 20,800 2,852 Climbing New York Center
Tue 03:22:30 PM 40.8186 -75.1281 260° West 351 404 23,700 2,622 Climbing New York Center
Tue 03:23:28 PM 40.8069 -75.2233 261° West 351 404 26,000 2,150 Climbing New York Center
Tue 03:24:30 PM 40.7850 -75.3617 258° West 351 404 28,000 1,328 Climbing New York Center
Tue 03:25:30 PM 40.7667 -75.5056 260° West 375 432 28,700 1,525 Climbing New York Center
Tue 03:26:28 PM 40.7483 -75.6497 261° West 393 452 31,000 1,664 Climbing New York Center
Tue 03:27:29 PM 40.7231 -75.8039 258° West 393 452 32,000 492 Climbing New York Center
Tue 03:28:30 PM 40.7069 -75.9342 261° West 406 467 32,000  Level New York Center
Tue 03:29:28 PM 40.6856 -76.0886 260° West 418 481 32,000  Level New York Center
Tue 03:30:28 PM 40.6683 -76.2406 262° West 424 488 32,000  Level New York Center
Tue 03:31:29 PM 40.6864 -76.3869 279° West 406 467 32,000  Level New York Center
Tue 03:32:30 PM 40.7128 -76.5314 284° West 411 473 32,000  Level New York Center
Tue 03:33:28 PM 40.7369 -76.6761 282° West 411 473 32,000  Level New York Center
Tue 03:34:29 PM 40.7608 -76.8233 282° West 411 473 32,000  Level New York Center
Tue 03:35:30 PM 40.7844 -76.9681 282° West 411 473 32,000  Level New York Center
Tue 03:36:30 PM 40.8081 -77.1128 282° West 411 473 32,000  Level New York Center
Tue 03:37:28 PM 40.8314 -77.2603 282° West 411 473 32,000  Level New York Center
Tue 03:38:28 PM 40.8581 -77.4164 283° West 411 473 32,000  Level New York Center
Tue 03:40:10 PM 40.8969 -77.6575 282° West 414 476 32,000  Level Cleveland Center
Tue 03:41:10 PM 40.9194 -77.8050 281° West 414 476 32,000  Level Cleveland Center
Tue 03:42:10 PM 40.9417 -77.9525 281° West 414 476 32,000  Level Cleveland Center
Tue 03:43:10 PM 40.9658 -78.1028 282° West 409 471 32,000  Level Cleveland Center
Tue 03:44:10 PM 40.9878 -78.2558 281° West 414 476 32,000  Level Cleveland Center
Tue 03:45:10 PM 40.9972 -78.4125 275° West 419 482 32,000  Level Cleveland Center
Tue 03:46:10 PM 41.0042 -78.5636 274° West 425 489 32,000  Level Cleveland Center
Tue 03:47:10 PM 41.0108 -78.7203 273° West 425 489 32,000  Level Cleveland Center
Tue 03:48:10 PM 41.0197 -78.8742 274° West 425 489 32,000  Level Cleveland Center
Tue 03:49:10 PM 41.0261 -79.0308 273° West 425 489 32,000 -600 Level Cleveland Center
Tue 03:50:10 PM 41.0342 -79.1819 274° West 419 482 30,800 -1,300 Descending Cleveland Center
Tue 03:51:10 PM 41.0422 -79.3306 274° West 414 476 29,400 -1,400 Descending Cleveland Center
Tue 03:52:10 PM 41.0481 -79.4847 273° West 414 476 28,000 -1,200 Descending Cleveland Center
Tue 03:53:10 PM 41.0536 -79.6386 273° West 419 482 27,000 -500 Descending Cleveland Center
Tue 03:54:10 PM 41.0608 -79.7872 274° West 419 482 27,000 -700 Level Cleveland Center
Tue 03:55:10 PM 41.0661 -79.9386 273° West 419 482 25,600 -1,450 Descending Cleveland Center
Tue 03:56:10 PM 41.0731 -80.0928 273° West 419 482 24,100 -1,300 Descending Cleveland Center
Tue 03:57:10 PM 41.0756 -80.2361 271° West 414 476 23,000 -1,250 Descending Cleveland Center
Tue 03:58:10 PM 41.0822 -80.3764 274° West 401 461 21,600 -1,500 Descending Cleveland Center
Tue 03:59:10 PM 41.0864 -80.5169 272° West 396 456 20,000 -1,700 Descending Cleveland Center
Tue 04:00:10 PM 41.0906 -80.6492 272° West 382 440 18,200 -2,150 Descending Cleveland Center
Tue 04:01:10 PM 41.0967 -80.7761 274° West 362 417 15,700 -2,450 Descending Cleveland Center
Tue 04:02:10 PM 41.0986 -80.8944 271° West 345 397 13,300 -2,300 Descending Cleveland Center
Tue 04:03:10 PM 41.1025 -81.0103 273° West 327 376 11,100 -2,100 Descending Cleveland Center
Tue 04:04:10 PM 41.1061 -81.1314 272° West 316 364 9,100 -1,350 Descending Cleveland Center
Tue 04:05:10 PM 41.0931 -81.2278 260° West 295 339 8,400 -1,450 Descending Cleveland Center
Tue 04:06:10 PM 41.0528 -81.3156 239° Southwest 267 307 6,200 -2,200 Descending Cleveland Center
Tue 04:07:10 PM 41.0169 -81.3922 238° Southwest 273 314 4,000 -1,900 Descending Cleveland Center
Tue 04:08:10 PM 40.9728 -81.4439 221° Southwest 262 302 2,400 -1,300 Descending Cleveland Center
Tue 04:09:10 PM 40.9333 -81.4406 176° South 169 194 1,400 3,300 Descending Cleveland Center
Tue 04:10:10 PM 40.8850 -81.4839 214° Southwest 169 194 9,000 3,800 Climbing Cleveland Center
Tue 04:11:10 PM 40.8431 -81.5108 206° Southwest 169 194 9,000  Level Cleveland Center
Tue 04:12:10 PM 40.8011 -81.5378 206° Southwest 169 194 9,000  Level Cleveland Center

Login

Don't have an account? Register now (free) for customized features, flight alerts, and more!